Time;durP1;ratioP1;P1;durP2;ratioP2;P2;SDS_P1;SDS_P2;PMS_P1;PMS_P2;Temp;Humidity;BMP_temperature;BMP_pressure;BME280_temperature;BME280_humidity;BME280_pressure;Samples;Min_cycle;Max_cycle;Signal;HPM_P1;HPM_P2
2022/10/21 00:01:36;;;;;;;31.15;20.02;;;12.90;99.90;;;;;;5088220;28;20023;-77
2022/10/21 00:04:03;;;;;;;31.33;19.10;;;12.40;99.90;;;;;;5089796;28;20039;-78
2022/10/21 00:06:28;;;;;;;32.50;19.65;;;13.00;99.90;;;;;;5072015;28;20040;-77
2022/10/21 00:08:57;;;;;;;29.75;19.85;;;13.00;99.90;;;;;;5101777;28;20024;-78
2022/10/21 00:11:22;;;;;;;29.58;20.48;;;13.10;99.90;;;;;;5092935;28;20039;-77
2022/10/21 00:13:48;;;;;;;30.48;20.95;;;12.60;99.90;;;;;;5091014;28;20089;-75
2022/10/21 00:16:16;;;;;;;33.10;20.80;;;12.50;99.90;;;;;;5094049;28;20039;-76
2022/10/21 00:18:45;;;;;;;27.17;17.65;;;13.00;99.90;;;;;;5099603;28;20032;-76
2022/10/21 00:21:15;;;;;;;32.15;19.73;;;12.50;99.90;;;;;;5104686;28;20047;-77
2022/10/21 00:23:41;;;;;;;27.77;17.83;;;12.60;99.90;;;;;;5106244;28;20062;-78
2022/10/21 00:26:07;;;;;;;26.33;19.10;;;13.40;99.90;;;;;;5081706;28;20035;-78
2022/10/21 00:28:33;;;;;;;28.55;21.05;;;13.20;99.90;;;;;;5101652;28;20218;-78
2022/10/21 00:30:59;;;;;;;29.17;19.55;;;13.20;99.90;;;;;;5080891;28;20040;-78
2022/10/21 00:33:26;;;;;;;31.08;20.33;;;12.60;99.90;;;;;;5111419;28;20047;-77
2022/10/21 00:35:58;;;;;;;28.25;19.17;;;12.40;99.90;;;;;;5075498;28;20032;-76
2022/10/21 00:38:24;;;;;;;34.80;21.50;;;12.40;99.90;;;;;;5104300;28;20047;-77
2022/10/21 00:40:50;;;;;;;22.65;16.40;;;13.10;99.90;;;;;;5068452;28;20207;-76
2022/10/21 00:43:16;;;;;;;31.10;18.77;;;12.80;99.90;;;;;;5071853;28;20115;-79
2022/10/21 00:45:42;;;;;;;29.98;19.48;;;12.50;99.90;;;;;;5085873;28;20049;-78
2022/10/21 00:48:17;;;;;;;33.00;21.92;;;12.50;99.90;;;;;;5090656;28;20052;-78
2022/10/21 00:50:53;;;;;;;32.83;20.25;;;12.50;99.90;;;;;;5105677;28;20278;-77
2022/10/21 00:53:21;;;;;;;28.35;18.17;;;12.50;99.90;;;;;;5104747;28;20028;-76
2022/10/21 00:55:56;;;;;;;30.15;18.33;;;12.50;99.90;;;;;;5103056;28;20035;-75
2022/10/21 00:58:25;;;;;;;25.90;17.92;;;12.70;99.90;;;;;;5085528;28;20031;-77
2022/10/21 01:00:54;;;;;;;30.42;19.45;;;12.40;99.90;;;;;;5082644;28;20036;-79
2022/10/21 01:03:23;;;;;;;30.90;18.95;;;12.60;99.90;;;;;;5087608;28;20222;-78
2022/10/21 01:05:50;;;;;;;35.92;22.35;;;13.00;99.90;;;;;;5098335;28;20352;-80
2022/10/21 01:08:17;;;;;;;26.77;17.48;;;13.20;99.90;;;;;;5072803;28;20095;-78
2022/10/21 01:10:43;;;;;;;26.38;16.98;;;12.50;99.90;;;;;;5101703;28;20218;-77
2022/10/21 01:13:27;;;;;;;32.05;20.10;;;13.30;99.90;;;;;;5060818;28;20033;-77
2022/10/21 01:16:21;;;;;;;30.45;20.95;;;12.40;99.90;;;;;;5095714;28;20385;-77
2022/10/21 01:19:17;;;;;;;31.98;19.65;;;13.10;99.90;;;;;;5096849;28;20353;-78
2022/10/21 01:21:46;;;;;;;26.67;18.08;;;13.10;99.90;;;;;;5050761;28;20055;-77
2022/10/21 01:24:40;;;;;;;27.17;18.10;;;12.40;99.90;;;;;;5090879;28;20023;-78
2022/10/21 01:27:10;;;;;;;30.73;20.25;;;12.30;99.90;;;;;;5090613;28;20054;-76
2022/10/21 01:29:48;;;;;;;25.75;19.13;;;13.00;99.90;;;;;;5101341;28;20034;-77
2022/10/21 01:32:39;;;;;;;31.80;20.17;;;13.10;99.90;;;;;;5083944;28;20047;-77
2022/10/21 01:35:35;;;;;;;29.60;20.38;;;12.40;99.90;;;;;;5089095;28;20063;-77
2022/10/21 01:38:30;;;;;;;28.00;17.67;;;12.20;99.90;;;;;;5099979;28;20038;-76
2022/10/21 01:41:19;;;;;;;26.25;18.05;;;12.30;99.90;;;;;;5085611;28;20071;-77
2022/10/21 01:44:02;;;;;;;28.48;19.20;;;12.40;99.90;;;;;;5079199;28;20055;-78
2022/10/21 01:46:32;;;;;;;27.42;16.85;;;12.20;99.90;;;;;;5107548;28;20310;-74
2022/10/21 01:49:05;;;;;;;34.40;20.58;;;12.70;99.90;;;;;;5102447;28;20029;-79
2022/10/21 01:51:33;;;;;;;27.25;19.00;;;12.80;99.90;;;;;;5092818;28;20302;-79
2022/10/21 01:54:07;;;;;;;29.17;19.65;;;12.80;99.90;;;;;;5086247;28;20047;-76
2022/10/21 01:56:35;;;;;;;29.30;18.98;;;12.20;99.90;;;;;;5109407;28;20035;-77
2022/10/21 01:59:02;;;;;;;30.63;20.63;;;12.60;99.90;;;;;;5101976;28;20039;-75
2022/10/21 02:01:29;;;;;;;29.42;19.13;;;12.90;99.90;;;;;;5078851;28;20040;-80
2022/10/21 02:03:59;;;;;;;28.17;19.30;;;12.50;99.90;;;;;;5050386;28;20039;-76
2022/10/21 02:06:25;;;;;;;26.45;18.05;;;13.10;99.90;;;;;;5069534;28;20039;-78
2022/10/21 02:08:51;;;;;;;36.15;20.23;;;13.00;99.90;;;;;;5102703;28;20040;-78
2022/10/21 02:11:17;;;;;;;29.15;19.63;;;12.90;99.90;;;;;;5085173;28;20031;-76
2022/10/21 02:14:00;;;;;;;32.72;20.35;;;12.80;99.90;;;;;;5087002;28;20064;-77
2022/10/21 02:16:32;;;;;;;31.08;18.70;;;12.80;99.90;;;;;;5103420;28;20345;-78
2022/10/21 02:18:58;;;;;;;28.67;18.40;;;12.80;99.90;;;;;;5083545;28;20039;-76
2022/10/21 02:21:28;;;;;;;27.13;18.67;;;12.60;99.90;;;;;;5087339;28;20047;-76
2022/10/21 02:24:17;;;;;;;27.83;18.08;;;13.10;99.90;;;;;;5099693;28;20046;-79
2022/10/21 02:26:43;;;;;;;25.10;17.35;;;12.90;99.90;;;;;;5101094;28;20063;-76
2022/10/21 02:29:10;;;;;;;28.58;18.55;;;13.20;99.90;;;;;;5085239;28;20213;-77
2022/10/21 02:31:57;;;;;;;26.38;18.35;;;13.20;99.90;;;;;;5110214;28;20032;-76
2022/10/21 02:34:58;;;;;;;29.98;18.75;;;12.60;99.90;;;;;;5088463;28;20103;-79
2022/10/21 02:37:26;;;;;;;30.33;18.55;;;13.00;99.90;;;;;;5090054;28;20044;-78
2022/10/21 02:40:00;;;;;;;28.13;16.75;;;13.10;99.90;;;;;;5085668;28;20148;-77
2022/10/21 02:42:30;;;;;;;28.65;19.35;;;12.40;99.90;;;;;;5091486;28;20102;-82
2022/10/21 02:44:56;;;;;;;31.38;19.15;;;12.70;99.90;;;;;;5094279;28;20037;-77
2022/10/21 02:47:25;;;;;;;29.95;18.92;;;12.40;99.90;;;;;;5108266;28;20034;-76
2022/10/21 02:49:51;;;;;;;27.58;19.85;;;13.40;99.90;;;;;;5087861;28;20441;-76
2022/10/21 02:52:17;;;;;;;31.45;20.85;;;13.50;99.90;;;;;;5079486;28;20020;-79
2022/10/21 02:54:43;;;;;;;22.92;15.43;;;13.30;99.90;;;;;;5075158;28;20190;-76
2022/10/21 02:57:09;;;;;;;26.73;17.95;;;12.50;99.90;;;;;;5071634;28;20103;-77
2022/10/21 02:59:34;;;;;;;32.13;17.02;;;13.60;99.90;;;;;;5091352;28;20279;-78
2022/10/21 03:02:00;;;;;;;30.48;19.50;;;12.80;99.90;;;;;;5085413;28;20024;-78
2022/10/21 03:04:26;;;;;;;24.50;15.82;;;13.50;99.90;;;;;;5078399;28;20035;-79
2022/10/21 03:06:51;;;;;;;30.38;19.10;;;13.10;99.90;;;;;;5110325;28;21487;-77
2022/10/21 03:09:17;;;;;;;29.77;17.00;;;13.10;99.90;;;;;;5063921;28;20086;-75
2022/10/21 03:11:43;;;;;;;29.88;19.00;;;13.50;99.90;;;;;;5075076;28;20084;-75
2022/10/21 03:14:08;;;;;;;27.25;18.75;;;12.70;99.90;;;;;;5084056;28;20027;-74
2022/10/21 03:16:34;;;;;;;25.75;17.45;;;12.90;99.90;;;;;;5104892;28;20099;-75
2022/10/21 03:19:00;;;;;;;29.17;19.02;;;13.10;99.90;;;;;;5090233;28;20141;-76
2022/10/21 03:21:25;;;;;;;32.65;19.20;;;13.20;99.90;;;;;;5074262;28;20138;-75
2022/10/21 03:23:51;;;;;;;29.00;18.05;;;13.60;99.90;;;;;;5077214;28;20031;-74
2022/10/21 03:26:16;;;;;;;28.85;18.50;;;12.70;99.90;;;;;;5113991;28;20031;-73
2022/10/21 03:28:42;;;;;;;35.25;19.63;;;12.60;99.90;;;;;;5090759;28;20024;-75
2022/10/21 03:31:08;;;;;;;30.33;18.67;;;12.60;99.90;;;;;;5076825;28;20043;-75
2022/10/21 03:33:33;;;;;;;34.38;18.63;;;13.60;99.90;;;;;;5072543;28;20048;-75
2022/10/21 03:35:59;;;;;;;40.05;19.85;;;12.90;99.90;;;;;;5104353;28;20134;-76
2022/10/21 03:38:25;;;;;;;32.47;19.35;;;13.80;99.90;;;;;;5091403;28;20042;-75
2022/10/21 03:40:50;;;;;;;35.17;18.23;;;13.50;99.90;;;;;;5070710;28;20059;-76
2022/10/21 03:43:16;;;;;;;44.00;19.35;;;13.50;99.90;;;;;;5086607;28;20040;-74
2022/10/21 03:45:42;;;;;;;32.53;19.85;;;12.70;99.90;;;;;;5087481;28;20143;-75
2022/10/21 03:48:08;;;;;;;34.95;19.30;;;13.60;99.90;;;;;;5089863;28;20034;-75
2022/10/21 03:50:33;;;;;;;50.83;19.90;;;13.70;99.90;;;;;;5072963;28;20337;-73
2022/10/21 03:52:59;;;;;;;30.70;17.58;;;13.50;99.90;;;;;;5091610;28;20047;-74
2022/10/21 03:55:26;;;;;;;35.40;18.20;;;12.70;99.90;;;;;;5076553;28;20051;-76
2022/10/21 03:57:52;;;;;;;34.13;19.27;;;13.30;99.90;;;;;;5085400;28;20040;-74
2022/10/21 04:00:18;;;;;;;35.80;20.05;;;12.90;99.90;;;;;;5074877;28;20457;-76
2022/10/21 04:02:44;;;;;;;36.03;18.83;;;13.70;99.90;;;;;;5083831;28;20044;-76
2022/10/21 04:05:10;;;;;;;40.05;19.65;;;13.00;99.90;;;;;;5095433;28;20052;-76
2022/10/21 04:07:36;;;;;;;37.42;20.55;;;13.00;99.90;;;;;;5063907;28;20032;-73
2022/10/21 04:10:03;;;;;;;34.55;19.92;;;13.00;99.90;;;;;;5093451;28;20047;-76
2022/10/21 04:12:29;;;;;;;31.60;19.52;;;13.10;99.90;;;;;;5063708;28;20043;-77
2022/10/21 04:14:54;;;;;;;37.75;20.02;;;13.00;99.90;;;;;;5031180;28;20040;-76
2022/10/21 04:17:20;;;;;;;36.53;19.45;;;13.10;99.90;;;;;;5066355;28;20230;-77
2022/10/21 04:19:46;;;;;;;33.45;18.63;;;13.00;99.90;;;;;;5064313;28;20206;-76
2022/10/21 04:22:11;;;;;;;32.85;18.67;;;13.20;99.90;;;;;;5084013;28;20073;-77
2022/10/21 04:24:37;;;;;;;30.20;18.60;;;13.20;99.90;;;;;;5100079;28;20027;-75
2022/10/21 04:27:03;;;;;;;42.65;20.10;;;14.00;99.90;;;;;;5099109;28;20352;-74
2022/10/21 04:29:29;;;;;;;24.52;15.80;;;13.40;99.90;;;;;;5083596;28;20024;-76
2022/10/21 04:31:55;;;;;;;24.45;15.25;;;13.50;99.90;;;;;;5084148;28;20032;-76
2022/10/21 04:34:20;;;;;;;17.83;12.18;;;13.60;99.90;;;;;;5100943;28;20028;-77
2022/10/21 04:36:46;;;;;;;28.20;16.15;;;13.50;99.90;;;;;;5078464;28;20299;-76
2022/10/21 04:39:11;;;;;;;21.48;13.68;;;14.00;99.90;;;;;;5090474;28;20108;-77
2022/10/21 04:41:37;;;;;;;38.90;20.05;;;13.30;99.90;;;;;;5079891;28;20040;-75
2022/10/21 04:44:05;;;;;;;22.55;14.80;;;14.00;99.90;;;;;;5063177;28;20064;-75
2022/10/21 04:46:31;;;;;;;27.02;15.40;;;13.40;99.90;;;;;;5087703;28;20048;-74
2022/10/21 04:48:57;;;;;;;29.33;16.50;;;13.20;99.90;;;;;;5084005;28;20114;-77
2022/10/21 04:51:22;;;;;;;44.92;18.90;;;13.30;99.90;;;;;;5067035;28;20070;-74
2022/10/21 04:53:48;;;;;;;17.05;10.85;;;13.50;99.90;;;;;;5083125;28;20444;-77
2022/10/21 04:56:14;;;;;;;30.77;17.33;;;13.20;99.90;;;;;;5099003;28;20036;-76
2022/10/21 04:58:39;;;;;;;44.10;19.75;;;13.60;99.90;;;;;;5051307;28;20051;-74
2022/10/21 05:01:05;;;;;;;40.00;18.98;;;13.60;99.90;;;;;;5094297;28;20106;-78
2022/10/21 05:03:31;;;;;;;51.33;21.50;;;13.60;99.90;;;;;;5087289;28;20036;-73
2022/10/21 05:05:56;;;;;;;42.40;19.63;;;13.10;99.90;;;;;;5071220;28;21323;-78
2022/10/21 05:08:22;;;;;;;31.30;16.75;;;13.70;99.90;;;;;;5085534;28;20024;-77
2022/10/21 05:10:48;;;;;;;40.05;18.63;;;13.20;99.90;;;;;;5078275;28;20047;-76
2022/10/21 05:13:14;;;;;;;32.95;17.80;;;13.80;99.90;;;;;;5090784;28;20255;-74
2022/10/21 05:15:40;;;;;;;61.40;23.27;;;13.80;99.90;;;;;;5099416;28;20089;-74
2022/10/21 05:18:05;;;;;;;56.42;21.65;;;13.70;99.90;;;;;;5081951;28;20040;-73
2022/10/21 05:20:31;;;;;;;50.67;20.58;;;13.00;99.90;;;;;;5085878;28;20222;-74
2022/10/21 05:22:57;;;;;;;76.22;25.27;;;13.50;99.90;;;;;;5089702;28;20086;-76
2022/10/21 05:25:22;;;;;;;56.20;23.27;;;13.70;99.90;;;;;;5076249;28;20036;-76
2022/10/21 05:27:48;;;;;;;50.75;20.60;;;13.60;99.90;;;;;;5085833;28;20652;-76
2022/10/21 05:30:14;;;;;;;31.33;15.15;;;13.60;99.90;;;;;;5096997;28;20043;-74
2022/10/21 05:32:40;;;;;;;30.60;15.32;;;13.70;99.90;;;;;;5104954;28;20027;-75
2022/10/21 05:35:06;;;;;;;123.97;25.90;;;13.10;99.90;;;;;;5093989;28;20040;-72
2022/10/21 05:37:32;;;;;;;83.90;22.50;;;13.30;99.90;;;;;;5113769;28;20122;-79
2022/10/21 05:39:58;;;;;;;81.75;20.92;;;13.40;99.90;;;;;;5089486;28;20058;-76
2022/10/21 05:42:25;;;;;;;109.85;23.88;;;13.70;99.90;;;;;;5091352;28;20162;-75
2022/10/21 05:44:51;;;;;;;51.63;19.80;;;13.30;99.90;;;;;;5104549;28;20043;-76
2022/10/21 05:47:17;;;;;;;50.15;20.20;;;13.10;99.90;;;;;;5075674;28;20064;-77
2022/10/21 05:49:42;;;;;;;47.63;22.40;;;13.80;99.90;;;;;;5090175;28;20249;-74
2022/10/21 05:52:08;;;;;;;46.55;22.38;;;13.10;99.90;;;;;;5077450;28;20225;-75
2022/10/21 05:54:33;;;;;;;54.65;23.02;;;13.70;99.90;;;;;;5078606;28;20105;-76
2022/10/21 05:57:05;;;;;;;54.83;23.15;;;13.70;99.90;;;;;;5090013;28;20030;-75
2022/10/21 05:59:31;;;;;;;55.55;23.95;;;13.10;99.90;;;;;;5087516;28;20028;-75
2022/10/21 06:01:56;;;;;;;46.60;21.33;;;13.20;99.90;;;;;;5101774;28;20051;-79
2022/10/21 06:04:22;;;;;;;47.03;22.50;;;13.30;99.90;;;;;;5086575;28;20272;-77
2022/10/21 06:06:48;;;;;;;50.30;23.13;;;13.10;99.90;;;;;;5079693;28;20037;-78
2022/10/21 06:09:13;;;;;;;49.20;23.48;;;13.00;99.90;;;;;;5080129;28;20032;-77
2022/10/21 06:11:39;;;;;;;45.65;21.30;;;13.80;99.90;;;;;;5086282;28;20032;-79
2022/10/21 06:14:05;;;;;;;52.90;21.77;;;13.10;99.90;;;;;;5063635;28;20047;-77
2022/10/21 06:16:34;;;;;;;39.50;18.63;;;13.50;99.90;;;;;;5085221;28;20036;-77
2022/10/21 06:19:00;;;;;;;43.67;20.67;;;13.10;99.90;;;;;;5085781;28;20063;-74
2022/10/21 06:21:26;;;;;;;50.05;22.08;;;13.30;99.90;;;;;;5073570;28;20044;-75
2022/10/21 06:23:52;;;;;;;42.10;20.65;;;12.80;99.90;;;;;;5088665;28;20032;-74
2022/10/21 06:26:18;;;;;;;43.03;20.02;;;13.10;99.90;;;;;;5102296;28;20035;-76
2022/10/21 06:28:44;;;;;;;43.47;21.15;;;13.30;99.90;;;;;;5050462;28;20131;-77
2022/10/21 06:31:13;;;;;;;40.83;19.08;;;12.90;99.90;;;;;;5064215;28;20070;-77
2022/10/21 06:33:38;;;;;;;31.75;16.83;;;13.30;99.90;;;;;;5097733;28;20048;-74
2022/10/21 06:36:04;;;;;;;43.92;20.83;;;13.00;99.90;;;;;;5085406;28;20067;-74
2022/10/21 06:38:31;;;;;;;41.70;20.77;;;12.80;99.90;;;;;;5080214;28;20036;-75
2022/10/21 06:41:06;;;;;;;42.42;20.20;;;12.70;99.90;;;;;;5098843;28;20097;-76
2022/10/21 06:43:31;;;;;;;39.05;19.60;;;12.70;99.90;;;;;;5082044;28;20079;-76
2022/10/21 06:46:08;;;;;;;42.22;20.70;;;12.70;99.90;;;;;;5079836;28;20032;-77
2022/10/21 06:48:34;;;;;;;37.80;18.35;;;12.60;99.90;;;;;;5084907;28;20368;-74
2022/10/21 06:51:03;;;;;;;45.30;20.73;;;13.40;99.90;;;;;;5108958;28;20350;-75
2022/10/21 06:53:29;;;;;;;47.08;19.88;;;13.30;99.90;;;;;;5100243;28;20085;-73
2022/10/21 06:56:13;;;;;;;42.72;20.20;;;12.70;99.90;;;;;;5093280;28;20048;-76
2022/10/21 06:58:42;;;;;;;39.58;19.27;;;13.30;99.90;;;;;;5083330;28;20063;-75
2022/10/21 07:01:28;;;;;;;41.25;18.88;;;12.60;99.90;;;;;;5102461;28;20040;-77
2022/10/21 07:03:54;;;;;;;32.70;16.45;;;13.20;99.90;;;;;;5090741;28;20051;-76
2022/10/21 07:06:20;;;;;;;40.42;18.92;;;12.60;99.90;;;;;;5104262;28;20036;-74
2022/10/21 07:08:46;;;;;;;32.25;17.67;;;13.30;99.90;;;;;;5087769;28;20036;-76
2022/10/21 07:11:13;;;;;;;40.25;20.20;;;13.40;99.90;;;;;;5075759;28;20221;-76
2022/10/21 07:13:39;;;;;;;37.58;18.02;;;13.50;99.90;;;;;;5095754;28;20046;-75
2022/10/21 07:16:18;;;;;;;34.72;17.60;;;12.80;99.90;;;;;;5068355;28;20027;-73
2022/10/21 07:18:44;;;;;;;35.78;17.55;;;12.70;99.90;;;;;;5106670;28;20029;-76
2022/10/21 07:21:16;;;;;;;36.35;18.40;;;12.90;99.90;;;;;;5086357;28;20280;-75
2022/10/21 07:23:47;;;;;;;33.40;18.17;;;13.30;99.90;;;;;;5104097;28;20134;-76
2022/10/21 07:26:13;;;;;;;26.67;16.73;;;13.50;99.90;;;;;;5085924;28;20082;-76
2022/10/21 07:28:40;;;;;;;27.88;16.85;;;13.60;99.90;;;;;;5068036;28;20044;-76
2022/10/21 07:31:07;;;;;;;31.50;18.00;;;13.80;99.90;;;;;;5083339;28;20027;-76
2022/10/21 07:33:33;;;;;;;31.30;18.48;;;13.20;99.90;;;;;;5083710;28;20042;-77
2022/10/21 07:36:10;;;;;;;30.65;17.88;;;13.90;99.90;;;;;;5102878;28;20081;-78
2022/10/21 07:38:40;;;;;;;33.17;19.33;;;13.80;99.90;;;;;;5087652;28;20341;-78
2022/10/21 07:41:05;;;;;;;31.77;19.33;;;13.70;99.90;;;;;;5092441;28;20131;-72
2022/10/21 07:43:32;;;;;;;30.95;17.65;;;13.90;99.90;;;;;;5082076;28;20040;-77
2022/10/21 07:45:59;;;;;;;28.52;17.40;;;13.10;99.90;;;;;;5090043;28;20044;-76
2022/10/21 07:48:25;;;;;;;29.35;17.10;;;13.30;99.90;;;;;;5068219;28;20040;-76
2022/10/21 07:50:51;;;;;;;25.45;17.52;;;13.30;99.90;;;;;;5071437;28;20032;-77
2022/10/21 07:53:17;;;;;;;27.30;17.58;;;13.10;99.90;;;;;;5083721;28;20330;-76
2022/10/21 07:55:43;;;;;;;29.60;17.23;;;13.40;99.90;;;;;;5083415;28;20063;-77
2022/10/21 07:58:09;;;;;;;29.00;18.50;;;13.40;99.90;;;;;;5062100;28;20343;-76
2022/10/21 08:00:34;;;;;;;30.15;18.73;;;13.90;99.90;;;;;;5080913;28;20138;-76
2022/10/21 08:03:00;;;;;;;31.10;17.50;;;13.90;99.90;;;;;;5090132;28;20063;-77
2022/10/21 08:05:26;;;;;;;30.40;19.05;;;13.80;99.90;;;;;;5065084;28;20071;-77
2022/10/21 08:07:52;;;;;;;29.95;18.25;;;13.90;99.90;;;;;;5082808;28;20024;-77
2022/10/21 08:10:18;;;;;;;32.38;17.50;;;14.00;99.90;;;;;;5066357;28;20062;-76
2022/10/21 08:12:43;;;;;;;29.90;17.92;;;13.60;99.90;;;;;;5079019;28;20021;-75
2022/10/21 08:15:09;;;;;;;29.98;17.45;;;13.30;99.90;;;;;;5064894;28;20364;-75
2022/10/21 08:17:35;;;;;;;30.20;18.55;;;14.20;99.90;;;;;;5068343;28;20074;-75
2022/10/21 08:20:01;;;;;;;28.27;18.67;;;14.30;99.90;;;;;;5097393;28;20293;-76
2022/10/21 08:22:27;;;;;;;29.85;18.27;;;13.60;99.90;;;;;;5098053;28;20320;-76
2022/10/21 08:24:53;;;;;;;25.55;16.90;;;13.70;99.90;;;;;;5081280;28;20035;-78
2022/10/21 08:27:18;;;;;;;30.67;18.70;;;14.50;99.90;;;;;;5068391;28;20214;-73
2022/10/21 08:29:46;;;;;;;22.83;16.80;;;14.40;99.90;;;;;;5076899;28;20025;-74
2022/10/21 08:32:11;;;;;;;28.55;18.10;;;14.60;99.90;;;;;;5083225;28;20112;-75
2022/10/21 08:34:37;;;;;;;28.42;17.52;;;14.10;99.90;;;;;;5096015;28;20024;-74
2022/10/21 08:37:03;;;;;;;24.83;16.52;;;14.30;99.90;;;;;;5065793;28;20207;-74
2022/10/21 08:39:29;;;;;;;29.13;18.63;;;14.90;99.90;;;;;;5078829;28;20059;-73
2022/10/21 08:42:00;;;;;;;28.08;18.70;;;14.90;99.90;;;;;;5077715;28;20445;-76
2022/10/21 08:44:37;;;;;;;28.67;19.75;;;15.00;99.90;;;;;;5064371;28;20054;-76
2022/10/21 08:47:44;;;;;;;25.73;18.75;;;15.00;99.90;;;;;;5067891;28;20109;-75
2022/10/21 08:50:23;;;;;;;26.77;18.75;;;14.70;99.90;;;;;;5062289;28;20334;-74
2022/10/21 08:53:00;;;;;;;23.33;16.98;;;15.40;99.90;;;;;;5084280;28;20028;-74
2022/10/21 08:55:26;;;;;;;30.02;18.50;;;15.30;99.90;;;;;;5097981;28;20093;-74
2022/10/21 08:57:53;;;;;;;24.58;16.25;;;15.20;99.90;;;;;;5092703;28;20028;-75
2022/10/21 09:00:26;;;;;;;29.58;17.60;;;14.50;99.90;;;;;;5077692;28;20036;-77
2022/10/21 09:03:10;;;;;;;27.25;18.70;;;15.10;99.90;;;;;;5092924;28;20071;-73
2022/10/21 09:05:55;;;;;;;28.20;18.33;;;14.70;99.90;;;;;;5082822;28;20032;-75
2022/10/21 09:08:33;;;;;;;28.95;18.00;;;14.50;99.90;;;;;;5079818;28;20036;-75
2022/10/21 09:11:13;;;;;;;29.48;17.38;;;14.40;99.90;;;;;;5098679;28;20055;-76
2022/10/21 09:13:55;;;;;;;23.73;17.70;;;15.30;99.90;;;;;;5078841;28;20051;-78
2022/10/21 09:16:36;;;;;;;24.77;17.13;;;15.20;99.90;;;;;;5095370;28;20040;-75
2022/10/21 09:19:14;;;;;;;28.75;19.02;;;15.90;99.90;;;;;;5073392;28;20437;-74
2022/10/21 09:22:05;;;;;;;27.42;18.23;;;15.60;99.90;;;;;;5094722;28;20044;-75
2022/10/21 09:24:51;;;;;;;26.00;17.20;;;16.30;99.90;;;;;;5092787;28;20032;-78
2022/10/21 09:27:18;;;;;;;24.23;17.58;;;15.10;99.90;;;;;;5066943;28;20040;-75
2022/10/21 09:29:48;;;;;;;27.15;17.70;;;16.60;99.90;;;;;;5070571;28;20131;-77
2022/10/21 09:32:21;;;;;;;24.55;17.00;;;16.10;99.90;;;;;;5078856;28;20068;-77
2022/10/21 09:35:05;;;;;;;26.48;17.83;;;16.50;99.90;;;;;;5083895;28;20063;-77
2022/10/21 09:37:41;;;;;;;25.88;16.35;;;16.70;99.90;;;;;;5099645;28;20032;-78
2022/10/21 09:40:27;;;;;;;22.35;14.95;;;16.20;99.90;;;;;;5070300;28;20033;-77
2022/10/21 09:42:55;;;;;;;20.75;15.43;;;16.80;99.90;;;;;;5078450;28;20048;-79
2022/10/21 09:45:30;;;;;;;25.00;15.77;;;15.80;99.90;;;;;;5072392;28;20097;-75
2022/10/21 09:48:16;;;;;;;19.95;14.38;;;16.80;99.90;;;;;;5078696;28;20111;-78
2022/10/21 09:50:47;;;;;;;22.10;13.95;;;16.10;99.90;;;;;;5093771;28;20031;-77
2022/10/21 09:53:24;;;;;;;21.90;14.60;;;16.30;99.90;;;;;;5082278;28;20074;-74
2022/10/21 09:55:57;;;;;;;20.20;14.93;;;15.40;99.90;;;;;;5087260;28;20093;-76
2022/10/21 09:58:42;;;;;;;21.92;14.80;;;16.40;99.90;;;;;;5078448;28;20063;-75
2022/10/21 10:01:14;;;;;;;22.00;14.77;;;16.10;99.90;;;;;;5083879;28;20055;-75
2022/10/21 10:03:48;;;;;;;19.88;14.48;;;15.50;99.90;;;;;;5074057;28;20054;-76
2022/10/21 10:06:39;;;;;;;21.77;14.85;;;16.20;99.90;;;;;;5094249;28;20035;-74
2022/10/21 10:09:27;;;;;;;17.70;13.85;;;15.70;99.90;;;;;;5079344;28;20032;-77
2022/10/21 10:11:59;;;;;;;18.23;13.88;;;16.00;99.90;;;;;;5087641;28;20040;-75
2022/10/21 10:14:31;;;;;;;20.15;13.93;;;16.20;99.90;;;;;;5079116;28;20041;-76
2022/10/21 10:17:17;;;;;;;18.55;12.90;;;16.40;99.90;;;;;;5079305;28;20036;-77
2022/10/21 10:19:43;;;;;;;15.65;12.13;;;16.50;99.90;;;;;;5084190;28;20035;-75
2022/10/21 10:22:13;;;;;;;16.58;12.73;;;16.50;99.90;;;;;;5070720;28;20040;-77
2022/10/21 10:24:41;;;;;;;18.42;12.40;;;17.60;99.90;;;;;;5080142;28;20032;-75
2022/10/21 10:27:25;;;;;;;17.90;13.23;;;17.40;99.90;;;;;;5080975;28;20068;-74
2022/10/21 10:29:54;;;;;;;16.33;11.75;;;17.10;99.90;;;;;;5081300;28;20032;-78
2022/10/21 10:32:23;;;;;;;15.98;10.77;;;17.30;99.90;;;;;;5065153;28;20040;-78
2022/10/21 10:34:53;;;;;;;15.00;11.63;;;17.40;99.90;;;;;;5083728;28;20032;-75
2022/10/21 10:37:24;;;;;;;18.15;12.60;;;17.10;99.90;;;;;;5097443;28;20378;-78
2022/10/21 10:39:54;;;;;;;16.23;10.50;;;16.40;99.90;;;;;;5097073;28;20041;-75
2022/10/21 10:42:29;;;;;;;15.98;11.00;;;16.30;99.90;;;;;;5080992;28;20051;-77
2022/10/21 10:44:59;;;;;;;15.68;10.65;;;17.20;99.90;;;;;;5087506;28;20133;-77
2022/10/21 10:47:30;;;;;;;13.88;10.77;;;17.20;99.90;;;;;;5070471;28;20258;-78
2022/10/21 10:49:56;;;;;;;15.77;11.45;;;16.20;99.90;;;;;;5098870;28;20028;-74
2022/10/21 10:52:23;;;;;;;17.88;12.27;;;17.30;99.90;;;;;;5063812;28;20254;-76
2022/10/21 10:55:12;;;;;;;17.15;12.20;;;16.80;99.90;;;;;;5094301;28;20253;-75
2022/10/21 10:57:41;;;;;;;18.83;12.77;;;16.50;99.90;;;;;;5088314;28;20116;-75
2022/10/21 11:00:15;;;;;;;14.48;12.38;;;17.30;99.90;;;;;;5083254;28;20063;-76
2022/10/21 11:02:44;;;;;;;;;;;17.20;99.90;;;;;;5082168;28;20025;-77
2022/10/21 11:05:16;;;;;;;16.83;12.57;;;17.10;99.90;;;;;;5097713;28;20102;-75
2022/10/21 11:07:50;;;;;;;16.88;12.27;;;16.70;99.90;;;;;;5070132;28;20043;-75
2022/10/21 11:10:27;;;;;;;15.25;12.32;;;17.50;99.90;;;;;;5091675;28;20098;-76
2022/10/21 11:12:53;;;;;;;16.65;13.18;;;16.50;99.90;;;;;;5094119;28;20031;-77
2022/10/21 11:15:25;;;;;;;20.75;12.90;;;17.30;99.90;;;;;;5099286;28;20110;-76
2022/10/21 11:18:00;;;;;;;15.88;12.40;;;17.50;99.90;;;;;;5065610;28;20087;-75
2022/10/21 11:20:45;;;;;;;17.27;12.30;;;16.70;99.90;;;;;;5083432;28;20067;-78
2022/10/21 11:23:38;;;;;;;15.82;12.45;;;16.60;99.90;;;;;;5081686;28;20096;-76
2022/10/21 11:26:12;;;;;;;16.25;12.40;;;17.50;99.90;;;;;;5098541;28;20210;-78
2022/10/21 11:28:46;;;;;;;16.45;11.88;;;17.20;99.90;;;;;;5090681;28;20070;-74
2022/10/21 11:31:33;;;;;;;14.30;11.52;;;16.80;99.90;;;;;;5078742;28;20039;-75
2022/10/21 11:34:13;;;;;;;16.20;10.95;;;17.80;99.90;;;;;;5078706;28;20059;-77
2022/10/21 11:37:05;;;;;;;16.20;10.90;;;16.70;99.90;;;;;;5083421;28;20071;-79
2022/10/21 11:39:47;;;;;;;12.52;10.32;;;17.70;99.90;;;;;;5097568;28;20055;-77
2022/10/21 11:42:24;;;;;;;15.48;9.90;;;16.60;99.90;;;;;;5081687;28;20084;-75
2022/10/21 11:45:08;;;;;;;12.75;10.25;;;17.20;99.90;;;;;;5099413;28;20040;-74
2022/10/21 11:47:40;;;;;;;15.82;9.35;;;17.50;99.90;;;;;;5099906;28;20036;-76
2022/10/21 11:50:39;;;;;;;15.88;9.63;;;16.60;99.90;;;;;;5095600;28;20032;-74
2022/10/21 11:53:29;;;;;;;13.10;9.90;;;16.70;99.90;;;;;;5075325;28;20337;-77
2022/10/21 11:56:06;;;;;;;12.77;10.23;;;16.60;99.90;;;;;;5083462;28;20037;-77
2022/10/21 11:58:43;;;;;;;11.55;9.15;;;17.20;99.90;;;;;;5076767;28;20091;-76
2022/10/21 12:01:29;;;;;;;17.13;10.40;;;16.60;99.90;;;;;;5079324;28;20082;-75
2022/10/21 12:04:07;;;;;;;12.80;9.63;;;16.60;99.90;;;;;;5063367;28;20040;-73
2022/10/21 12:06:46;;;;;;;16.20;10.90;;;17.20;99.90;;;;;;5098961;28;20036;-72
2022/10/21 12:09:25;;;;;;;15.70;10.38;;;17.00;99.90;;;;;;5077772;28;20041;-74
2022/10/21 12:12:03;;;;;;;14.90;10.55;;;17.20;99.90;;;;;;5078480;28;20036;-75
2022/10/21 12:14:36;;;;;;;12.15;9.68;;;17.30;99.90;;;;;;5097248;28;20192;-73
2022/10/21 12:17:07;;;;;;;15.52;11.07;;;16.80;99.90;;;;;;5096123;28;20046;-75
2022/10/21 12:19:34;;;;;;;15.15;10.32;;;17.10;99.90;;;;;;5082721;28;20028;-76
2022/10/21 12:22:01;;;;;;;12.55;9.38;;;17.30;99.90;;;;;;5098008;28;20039;-74
2022/10/21 12:24:29;;;;;;;15.02;10.60;;;16.70;99.90;;;;;;5059239;28;20025;-75
2022/10/21 12:27:07;;;;;;;14.30;9.45;;;17.10;99.90;;;;;;5092119;28;20024;-77
2022/10/21 12:29:55;;;;;;;14.48;9.77;;;16.90;99.90;;;;;;5082752;28;20036;-77
2022/10/21 12:32:47;;;;;;;14.52;9.98;;;17.30;99.90;;;;;;5096325;28;20482;-75
2022/10/21 12:35:20;;;;;;;12.13;10.07;;;17.00;99.90;;;;;;5079254;28;20235;-76
2022/10/21 12:37:52;;;;;;;15.38;9.98;;;17.60;99.90;;;;;;5091976;28;20039;-77
2022/10/21 12:40:24;;;;;;;15.35;9.75;;;16.70;99.90;;;;;;5088083;28;20032;-73
2022/10/21 12:43:27;;;;;;;14.32;9.98;;;17.10;99.90;;;;;;5062391;28;20060;-76
2022/10/21 12:46:08;;;;;;;14.32;9.50;;;17.10;99.90;;;;;;5078171;28;20119;-77
2022/10/21 12:48:42;;;;;;;12.38;9.82;;;16.70;99.90;;;;;;5091046;28;20043;-79